createdAt,value
2019-04-01T00:00:38.723Z,19.30
2019-04-01T00:03:09.196Z,18.97
2019-04-01T00:05:37.905Z,18.40
2019-04-01T00:08:06.625Z,18.47
2019-04-01T00:10:35.404Z,18.67
2019-04-01T00:13:04.067Z,18.73
2019-04-01T00:15:32.746Z,16.20
2019-04-01T00:18:01.440Z,15.97
2019-04-01T00:20:30.126Z,15.27
2019-04-01T00:22:58.921Z,15.47
2019-04-01T00:25:27.672Z,14.93
2019-04-01T00:27:56.361Z,14.77
2019-04-01T00:30:25.043Z,14.23
2019-04-01T00:32:53.766Z,15.17
2019-04-01T00:35:22.472Z,14.67
2019-04-01T00:37:51.143Z,14.50
2019-04-01T00:40:19.829Z,14.67
2019-04-01T00:42:52.850Z,13.83
2019-04-01T00:45:25.831Z,13.23
2019-04-01T00:47:54.517Z,12.90
2019-04-01T00:50:23.204Z,13.17
2019-04-01T00:52:51.882Z,13.50
2019-04-01T00:55:20.630Z,13.33
2019-04-01T00:57:49.312Z,12.50
2019-04-01T01:00:19.138Z,12.70
2019-04-01T01:02:47.838Z,11.87
2019-04-01T01:05:16.515Z,12.70
2019-04-01T01:07:45.198Z,12.53
2019-04-01T01:10:14.325Z,11.43
2019-04-01T01:12:43.002Z,12.57
2019-04-01T01:15:11.921Z,13.00
2019-04-01T01:17:40.605Z,12.20
2019-04-01T01:20:09.524Z,12.13
2019-04-01T01:22:38.245Z,12.33
2019-04-01T01:25:07.035Z,11.20
2019-04-01T01:27:35.717Z,11.67
2019-04-01T01:30:06.287Z,11.63
2019-04-01T01:32:34.987Z,12.20
2019-04-01T01:35:03.639Z,11.83
2019-04-01T01:37:32.316Z,11.87
2019-04-01T01:40:00.996Z,12.20
2019-04-01T01:42:29.809Z,12.20
2019-04-01T01:44:58.500Z,12.00
2019-04-01T01:47:27.198Z,11.67
2019-04-01T01:49:55.887Z,11.07
2019-04-01T01:52:24.557Z,11.37
2019-04-01T01:54:53.237Z,11.30
2019-04-01T01:57:21.897Z,11.47
2019-04-01T01:59:50.598Z,11.87
2019-04-01T02:02:19.250Z,11.93
2019-04-01T02:04:47.941Z,11.47
2019-04-01T02:07:16.620Z,11.53
2019-04-01T02:09:45.294Z,12.27
2019-04-01T02:12:13.970Z,11.27
2019-04-01T02:14:42.660Z,11.30
2019-04-01T02:17:11.336Z,11.50
2019-04-01T02:19:40.021Z,11.07
2019-04-01T02:22:08.700Z,11.23
2019-04-01T02:24:37.425Z,11.20
2019-04-01T02:27:06.206Z,10.80
2019-04-01T02:29:34.913Z,11.43
2019-04-01T02:32:03.598Z,11.83
2019-04-01T02:34:32.257Z,10.97
2019-04-01T02:37:00.992Z,12.10
2019-04-01T02:39:29.610Z,10.93
2019-04-01T02:41:58.289Z,11.60
2019-04-01T02:44:26.970Z,10.83
2019-04-01T02:46:55.653Z,11.43
2019-04-01T02:49:24.348Z,10.97
2019-04-01T02:51:53.010Z,11.53
2019-04-01T02:54:21.724Z,10.87
2019-04-01T02:56:50.410Z,11.63
2019-04-01T02:59:19.099Z,11.67
2019-04-01T03:01:47.793Z,11.23
2019-04-01T03:04:16.480Z,12.00
2019-04-01T03:06:45.152Z,12.10
2019-04-01T03:09:13.868Z,11.20
2019-04-01T03:11:42.544Z,11.73
2019-04-01T03:14:11.194Z,11.70
2019-04-01T03:16:39.884Z,11.87
2019-04-01T03:19:08.865Z,11.87
2019-04-01T03:21:37.557Z,12.07
2019-04-01T03:24:06.236Z,11.57
2019-04-01T03:26:34.960Z,11.60
2019-04-01T03:29:03.663Z,11.47
2019-04-01T03:31:32.570Z,11.80
2019-04-01T03:34:01.313Z,10.53
2019-04-01T03:36:29.992Z,10.63
2019-04-01T03:38:58.659Z,11.37
2019-04-01T03:41:27.346Z,12.60
2019-04-01T03:43:56.034Z,11.73
2019-04-01T03:46:24.732Z,12.07
2019-04-01T03:48:53.505Z,12.33
2019-04-01T03:51:22.189Z,12.30
2019-04-01T03:53:50.886Z,12.73
2019-04-01T03:56:19.594Z,12.33
2019-04-01T03:58:48.262Z,13.33
2019-04-01T04:01:17.147Z,13.40
2019-04-01T04:03:45.922Z,12.80
2019-04-01T04:06:14.629Z,12.43
2019-04-01T04:08:43.339Z,12.90
2019-04-01T04:11:12.023Z,12.50
2019-04-01T04:13:40.722Z,12.17
2019-04-01T04:16:09.399Z,11.80
2019-04-01T04:18:38.076Z,12.77
2019-04-01T04:21:06.895Z,12.43
2019-04-01T04:23:35.561Z,13.87
2019-04-01T04:26:04.246Z,13.13
2019-04-01T04:28:32.908Z,13.20
2019-04-01T04:31:01.591Z,13.23
2019-04-01T04:33:30.259Z,12.73
2019-04-01T04:35:58.967Z,12.70
2019-04-01T04:38:27.710Z,13.40
2019-04-01T04:40:56.430Z,13.70
2019-04-01T04:43:25.117Z,14.17
2019-04-01T04:45:53.828Z,14.20
2019-04-01T04:48:22.485Z,13.77
2019-04-01T04:50:51.170Z,13.20
2019-04-01T04:53:19.858Z,13.43
2019-04-01T04:55:48.539Z,13.13
2019-04-01T04:58:17.227Z,13.27
2019-04-01T05:00:45.919Z,14.03
2019-04-01T05:03:14.682Z,13.87
2019-04-01T05:05:43.360Z,13.53
2019-04-01T05:08:12.052Z,14.03
2019-04-01T05:10:40.754Z,13.00
2019-04-01T05:13:09.445Z,14.47
2019-04-01T05:15:38.178Z,13.53
2019-04-01T05:18:07.215Z,14.37
2019-04-01T05:20:37.910Z,14.40
2019-04-01T05:23:07.294Z,13.73
2019-04-01T05:25:37.619Z,14.03
2019-04-01T05:28:06.304Z,13.40
2019-04-01T05:30:37.068Z,14.50
2019-04-01T05:33:05.800Z,14.40
2019-04-01T05:35:37.448Z,14.67
2019-04-01T05:38:06.934Z,14.90
2019-04-01T05:40:35.878Z,17.10
2019-04-01T05:43:04.764Z,15.47
2019-04-01T05:45:33.650Z,15.40
2019-04-01T05:48:02.458Z,16.77
2019-04-01T05:50:31.796Z,16.53
2019-04-01T05:53:00.714Z,18.03
2019-04-01T05:55:29.411Z,15.57
2019-04-01T05:57:58.815Z,16.57
2019-04-01T06:00:29.233Z,15.93
2019-04-01T06:02:59.562Z,15.67
2019-04-01T06:05:28.637Z,16.93
2019-04-01T06:07:57.693Z,15.57
2019-04-01T06:10:26.398Z,15.20
2019-04-01T06:12:55.388Z,15.77
2019-04-01T06:15:24.452Z,15.23
2019-04-01T06:17:53.259Z,16.33
2019-04-01T06:20:21.972Z,18.03
2019-04-01T06:22:50.682Z,14.80
2019-04-01T06:25:19.441Z,17.70
2019-04-01T06:27:48.616Z,16.33
2019-04-01T06:30:17.438Z,16.77
2019-04-01T06:32:49.296Z,16.23
2019-04-01T06:35:18.078Z,14.80
2019-04-01T06:37:47.054Z,14.90
2019-04-01T06:40:16.056Z,13.83
2019-04-01T06:42:44.887Z,14.67
2019-04-01T06:45:14.067Z,15.70
2019-04-01T06:47:42.869Z,17.23
2019-04-01T06:50:12.008Z,16.07
2019-04-01T06:52:41.663Z,16.13
2019-04-01T06:55:10.355Z,16.47
2019-04-01T06:57:40.308Z,14.73
2019-04-01T07:00:09.828Z,15.20
2019-04-01T07:02:38.883Z,15.73
2019-04-01T07:05:08.026Z,18.10
2019-04-01T07:07:37.233Z,22.53
2019-04-01T07:10:06.660Z,20.23
2019-04-01T07:12:36.016Z,20.87
2019-04-01T07:15:07.472Z,20.47
2019-04-01T07:17:36.177Z,20.57
2019-04-01T07:20:08.754Z,22.83
2019-04-01T07:22:36.969Z,22.47
2019-04-01T07:25:06.078Z,22.50
2019-04-01T07:27:38.632Z,21.37
2019-04-01T07:30:07.970Z,23.47
2019-04-01T07:32:36.747Z,22.90
2019-04-01T07:35:06.562Z,21.37
2019-04-01T07:37:35.626Z,24.85
2019-04-01T07:40:06.671Z,20.32
2019-04-01T07:42:36.165Z,19.55
2019-04-01T07:45:07.113Z,18.27
2019-04-01T07:47:36.007Z,18.20
2019-04-01T07:50:06.434Z,18.50
2019-04-01T07:52:35.356Z,17.73
2019-04-01T07:55:05.605Z,16.97
2019-04-01T07:57:36.323Z,20.35
2019-04-01T08:00:06.869Z,17.75
2019-04-01T08:02:35.802Z,15.65
2019-04-01T08:05:05.638Z,14.05
2019-04-01T08:07:34.866Z,15.08
2019-04-01T08:10:05.282Z,15.23
2019-04-01T08:12:34.571Z,16.50
2019-04-01T08:15:06.446Z,15.70
2019-04-01T08:17:35.715Z,15.00
2019-04-01T08:20:05.139Z,15.30
2019-04-01T08:22:33.819Z,15.72
2019-04-01T08:28:16.883Z,15.18
2019-04-01T08:30:45.774Z,16.27
2019-04-01T08:33:15.416Z,16.80
2019-04-01T08:35:44.180Z,16.80
2019-04-01T08:38:13.480Z,15.35
2019-04-01T08:40:42.476Z,15.28
2019-04-01T08:43:11.336Z,14.98
2019-04-01T08:45:40.272Z,13.45
2019-04-01T08:48:18.045Z,14.80
2019-04-01T08:51:20.431Z,15.25
2019-04-01T08:54:09.810Z,13.08
2019-04-01T08:56:39.249Z,13.10
2019-04-01T08:59:09.812Z,13.55
2019-04-01T09:01:38.967Z,13.50
2019-04-01T09:04:08.158Z,16.48
2019-04-01T09:06:37.182Z,15.58
2019-04-01T09:09:07.153Z,13.48
2019-04-01T09:11:38.351Z,12.55
2019-04-01T09:14:07.341Z,12.60
2019-04-01T09:16:36.376Z,13.20
2019-04-01T09:19:06.517Z,12.95
2019-04-01T09:21:35.854Z,14.07
2019-04-01T09:27:23.117Z,13.13
2019-04-01T09:29:57.371Z,15.03
2019-04-01T09:32:58.727Z,13.32
2019-04-01T09:35:27.659Z,14.75
2019-04-01T09:37:56.399Z,13.28
2019-04-01T09:40:26.230Z,12.65
2019-04-01T09:42:55.090Z,13.15
2019-04-01T09:45:24.040Z,12.30
2019-04-01T09:47:52.913Z,13.62
2019-04-01T09:50:21.768Z,17.05
2019-04-01T09:52:50.804Z,14.10
2019-04-01T09:55:19.643Z,18.27
2019-04-01T09:57:49.292Z,12.82
2019-04-01T10:00:18.091Z,12.70
2019-04-01T10:02:46.848Z,12.23
2019-04-01T10:05:16.334Z,11.00
2019-04-01T10:07:45.436Z,12.05
2019-04-01T10:10:14.826Z,12.37
2019-04-01T10:12:43.657Z,12.33
2019-04-01T10:15:16.078Z,11.85
2019-04-01T10:17:45.515Z,18.50
2019-04-01T10:20:16.161Z,11.60
2019-04-01T10:22:47.456Z,11.35
2019-04-01T10:25:16.662Z,11.10
2019-04-01T10:27:47.429Z,11.65
2019-04-01T10:30:17.436Z,12.13
2019-04-01T10:32:46.600Z,11.03
2019-04-01T10:35:15.479Z,10.65
2019-04-01T10:37:44.252Z,10.53
2019-04-01T10:40:13.587Z,11.55
2019-04-01T10:42:42.311Z,16.40
2019-04-01T10:45:37.010Z,10.75
2019-04-01T10:48:06.293Z,10.15
2019-04-01T10:50:35.321Z,10.80
2019-04-01T10:56:36.063Z,11.08
2019-04-01T10:59:18.621Z,14.83
2019-04-01T11:01:48.285Z,10.48
2019-04-01T11:04:17.208Z,9.90
2019-04-01T11:06:46.182Z,10.23
2019-04-01T11:09:37.760Z,10.72
2019-04-01T11:11:55.957Z,12.25
2019-04-01T11:14:25.676Z,15.58
2019-04-01T11:16:54.963Z,9.28
2019-04-01T11:19:23.756Z,8.50
2019-04-01T11:21:52.416Z,7.85
2019-04-01T11:24:21.758Z,10.93
2019-04-01T11:27:20.350Z,10.38
2019-04-01T11:29:49.029Z,8.30
2019-04-01T11:32:17.827Z,7.58
2019-04-01T11:34:47.153Z,7.70
2019-04-01T11:40:28.391Z,9.05
2019-04-01T11:45:55.834Z,8.53
2019-04-01T11:48:24.631Z,8.93
2019-04-01T11:50:53.977Z,8.30
2019-04-01T11:53:23.019Z,8.23
2019-04-01T11:55:51.842Z,10.28
2019-04-01T11:58:20.657Z,7.80
2019-04-01T12:00:49.384Z,8.20
2019-04-01T12:03:19.088Z,7.53
2019-04-01T12:05:48.930Z,9.63
2019-04-01T12:08:17.636Z,8.15
2019-04-01T12:10:46.906Z,7.70
2019-04-01T12:13:15.589Z,8.60
2019-04-01T12:15:44.634Z,8.50
2019-04-01T12:18:13.335Z,7.87
2019-04-01T12:20:42.096Z,8.78
2019-04-01T12:23:10.823Z,9.20
2019-04-01T12:25:39.497Z,7.95
2019-04-01T12:28:08.294Z,8.18
2019-04-01T12:30:37.074Z,8.18
2019-04-01T12:33:05.880Z,8.53
2019-04-01T12:35:35.642Z,8.45
2019-04-01T12:38:05.010Z,7.87
2019-04-01T12:40:33.718Z,7.87
2019-04-01T12:43:02.532Z,8.35
2019-04-01T12:45:31.234Z,8.08
2019-04-01T12:48:00.024Z,8.28
2019-04-01T12:50:28.744Z,9.23
2019-04-01T12:52:57.432Z,8.23
2019-04-01T12:55:26.241Z,8.90
2019-04-01T12:57:54.953Z,8.48
2019-04-01T13:00:23.653Z,8.15
2019-04-01T13:02:52.580Z,8.25
2019-04-01T13:05:22.064Z,8.48
2019-04-01T13:07:54.189Z,8.60
2019-04-01T13:10:22.523Z,8.30
2019-04-01T13:12:53.993Z,8.20
2019-04-01T13:15:21.849Z,7.72
2019-04-01T13:17:50.667Z,7.75
2019-04-01T13:20:19.344Z,8.30
2019-04-01T13:22:49.854Z,7.62
2019-04-01T13:25:18.520Z,8.00
2019-04-01T13:27:47.238Z,7.72
2019-04-01T13:30:16.535Z,7.50
2019-04-01T13:32:46.363Z,7.42
2019-04-01T13:35:15.155Z,7.95
2019-04-01T13:37:43.863Z,8.40
2019-04-01T13:40:13.326Z,7.47
2019-04-01T13:42:43.336Z,8.18
2019-04-01T13:45:12.744Z,7.72
2019-04-01T13:47:41.549Z,8.03
2019-04-01T13:50:16.470Z,7.47
2019-04-01T13:52:45.539Z,8.03
2019-04-01T13:55:14.544Z,11.48
2019-04-01T13:57:43.390Z,8.15
2019-04-01T14:00:12.644Z,8.33
2019-04-01T14:02:41.472Z,7.97
2019-04-01T14:05:10.587Z,8.45
2019-04-01T14:07:39.293Z,7.75
2019-04-01T14:10:08.211Z,7.58
2019-04-01T14:12:36.836Z,7.90
2019-04-01T14:15:10.230Z,8.70
2019-04-01T14:17:39.039Z,8.10
2019-04-01T14:20:07.954Z,8.03
2019-04-01T14:22:36.867Z,9.28
2019-04-01T14:25:07.563Z,7.42
2019-04-01T14:27:36.390Z,8.10
2019-04-01T14:30:06.891Z,8.60
2019-04-01T14:32:36.428Z,7.90
2019-04-01T14:35:06.736Z,7.53
2019-04-01T14:37:35.398Z,8.70
2019-04-01T14:40:05.704Z,8.20
2019-04-01T14:42:37.152Z,8.85
2019-04-01T14:45:06.037Z,8.10
2019-04-01T14:47:34.986Z,8.73
2019-04-01T14:50:07.541Z,8.83
2019-04-01T14:52:34.608Z,8.85
2019-04-01T14:55:03.317Z,8.93
2019-04-01T14:57:32.016Z,8.28
2019-04-01T15:00:00.850Z,8.48
2019-04-01T15:02:29.785Z,8.15
2019-04-01T15:04:58.716Z,8.90
2019-04-01T15:07:27.426Z,8.78
2019-04-01T15:09:56.149Z,9.00
2019-04-01T15:12:24.840Z,8.53
2019-04-01T15:14:53.539Z,8.85
2019-04-01T15:17:23.151Z,8.47
2019-04-01T15:19:51.835Z,8.90
2019-04-01T15:22:20.805Z,9.30
2019-04-01T15:24:49.545Z,9.23
2019-04-01T15:27:18.301Z,10.07
2019-04-01T15:29:46.965Z,9.23
2019-04-01T15:32:15.731Z,9.50
2019-04-01T15:34:44.426Z,9.63
2019-04-01T15:37:13.138Z,9.10
2019-04-01T15:39:41.934Z,9.70
2019-04-01T15:42:10.746Z,9.40
2019-04-01T15:44:39.530Z,9.63
2019-04-01T15:47:08.826Z,10.87
2019-04-01T15:49:38.058Z,10.27
2019-04-01T15:52:06.818Z,10.50
2019-04-01T15:54:35.510Z,9.70
2019-04-01T15:57:04.297Z,10.00
2019-04-01T15:59:33.914Z,9.73
2019-04-01T16:02:03.443Z,9.60
2019-04-01T16:04:32.261Z,10.73
2019-04-01T16:07:01.092Z,9.67
2019-04-01T16:09:29.764Z,9.50
2019-04-01T16:11:58.542Z,9.30
2019-04-01T16:14:27.296Z,9.30
2019-04-01T16:16:55.961Z,9.30
2019-04-01T16:19:24.650Z,9.47
2019-04-01T16:21:53.425Z,10.07
2019-04-01T16:24:22.164Z,10.23
2019-04-01T16:26:50.857Z,10.37
2019-04-01T16:29:19.539Z,10.90
2019-04-01T16:31:48.239Z,11.00
2019-04-01T16:34:17.037Z,9.97
2019-04-01T16:36:45.789Z,10.43
2019-04-01T16:39:15.914Z,9.03
2019-04-01T16:41:44.633Z,9.73
2019-04-01T16:44:14.298Z,10.17
2019-04-01T16:46:43.812Z,9.30
2019-04-01T16:49:12.505Z,9.73
2019-04-01T16:51:41.504Z,9.73
2019-04-01T16:54:11.601Z,9.90
2019-04-01T16:56:40.328Z,9.87
2019-04-01T16:59:09.011Z,10.53
2019-04-01T17:01:41.486Z,11.23
2019-04-01T17:04:09.841Z,9.83
2019-04-01T17:06:38.520Z,11.27
2019-04-01T17:09:08.708Z,10.03
2019-04-01T17:11:37.383Z,10.57
2019-04-01T17:14:08.890Z,10.30
2019-04-01T17:16:36.465Z,9.67
2019-04-01T17:19:05.149Z,10.67
2019-04-01T17:21:34.086Z,10.57
2019-04-01T17:24:03.301Z,11.17
2019-04-01T17:26:32.133Z,10.87
2019-04-01T17:29:00.834Z,11.97
2019-04-01T17:31:29.514Z,14.33
2019-04-01T17:33:58.194Z,15.07
2019-04-01T17:36:26.925Z,13.70
2019-04-01T17:38:55.623Z,14.50
2019-04-01T17:41:24.302Z,14.73
2019-04-01T17:43:52.982Z,16.10
2019-04-01T17:46:21.665Z,16.03
2019-04-01T17:48:50.357Z,16.07
2019-04-01T17:51:19.103Z,17.47
2019-04-01T17:53:47.785Z,14.13
2019-04-01T17:56:17.987Z,12.83
2019-04-01T17:58:46.760Z,13.93
2019-04-01T18:01:15.445Z,12.40
2019-04-01T18:03:47.410Z,13.63
2019-04-01T18:06:16.048Z,13.17
2019-04-01T18:08:44.716Z,12.40
2019-04-01T18:11:16.039Z,13.10
2019-04-01T18:13:43.814Z,13.23
2019-04-01T18:16:14.022Z,12.77
2019-04-01T18:18:42.884Z,12.80
2019-04-01T18:21:11.579Z,12.90
2019-04-01T18:23:40.371Z,12.40
2019-04-01T18:26:09.045Z,11.70
2019-04-01T18:28:37.757Z,12.00
2019-04-01T18:31:06.482Z,12.87
2019-04-01T18:33:35.322Z,12.03
2019-04-01T18:36:04.064Z,12.10
2019-04-01T18:38:32.821Z,12.97
2019-04-01T18:41:01.503Z,11.93
2019-04-01T18:43:30.184Z,11.83
2019-04-01T18:45:58.926Z,14.10
2019-04-01T18:48:27.636Z,13.13
2019-04-01T18:50:56.311Z,11.10
2019-04-01T18:53:28.262Z,10.27
2019-04-01T18:55:56.723Z,10.33
2019-04-01T18:58:25.499Z,10.07
2019-04-01T19:00:54.160Z,9.97
2019-04-01T19:03:24.158Z,10.93
2019-04-01T19:05:53.100Z,10.93
2019-04-01T19:08:21.775Z,10.37
2019-04-01T19:11:01.779Z,9.80
2019-04-01T19:13:20.991Z,10.73
2019-04-01T19:15:50.672Z,9.27
2019-04-01T19:18:20.272Z,9.13
2019-04-01T19:20:56.097Z,9.73
2019-04-01T19:23:19.413Z,8.83
2019-04-01T19:25:48.191Z,10.27
2019-04-01T19:28:18.458Z,9.53
2019-04-01T19:30:47.693Z,9.73
2019-04-01T19:33:17.938Z,9.77
2019-04-01T19:35:46.592Z,9.70
2019-04-01T19:38:15.288Z,9.60
2019-04-01T19:40:43.974Z,9.37
2019-04-01T19:43:12.741Z,8.97
2019-04-01T19:45:42.195Z,11.07
2019-04-01T19:48:10.880Z,10.03
2019-04-01T19:50:39.559Z,9.27
2019-04-01T19:53:08.271Z,9.23
2019-04-01T19:55:36.950Z,8.80
2019-04-01T19:58:05.637Z,8.90
2019-04-01T20:00:34.354Z,10.77
2019-04-01T20:03:03.044Z,10.37
2019-04-01T20:05:31.747Z,9.93
2019-04-01T20:08:00.423Z,9.97
2019-04-01T20:10:29.101Z,9.00
2019-04-01T20:12:57.789Z,9.77
2019-04-01T20:15:26.467Z,9.30
2019-04-01T20:17:56.592Z,9.67
2019-04-01T20:20:25.305Z,11.33
2019-04-01T20:22:54.471Z,10.80
2019-04-01T20:25:23.222Z,10.07
2019-04-01T20:27:51.890Z,9.23
2019-04-01T20:30:22.444Z,9.53
2019-04-01T20:32:51.110Z,8.60
2019-04-01T20:35:23.735Z,9.37
2019-04-01T20:37:50.226Z,8.73
2019-04-01T20:40:19.451Z,10.10
2019-04-01T20:42:48.130Z,9.30
2019-04-01T20:45:16.906Z,8.60
2019-04-01T20:47:45.592Z,8.57
2019-04-01T20:50:14.857Z,8.77
2019-04-01T20:52:43.528Z,8.83
2019-04-01T20:55:13.499Z,8.60
2019-04-01T20:57:42.684Z,8.20
2019-04-01T21:00:11.469Z,8.97
2019-04-01T21:02:40.260Z,8.10
2019-04-01T21:05:09.739Z,8.47
2019-04-01T21:07:38.413Z,9.10
2019-04-01T21:10:13.166Z,8.50
2019-04-01T21:12:42.852Z,8.77
2019-04-01T21:15:11.723Z,8.33
2019-04-01T21:17:40.437Z,8.53
2019-04-01T21:20:09.217Z,8.67
2019-04-01T21:22:37.882Z,8.63
2019-04-01T21:25:08.041Z,8.03
2019-04-01T21:27:36.709Z,8.07
2019-04-01T21:30:10.638Z,8.00
2019-04-01T21:32:39.335Z,7.80
2019-04-01T21:35:09.073Z,8.20
2019-04-01T21:37:38.298Z,8.03
2019-04-01T21:40:07.886Z,7.80
2019-04-01T21:42:37.071Z,7.90
2019-04-01T21:45:09.709Z,6.90
2019-04-01T21:47:38.376Z,6.83
2019-04-01T21:50:08.066Z,7.17
2019-04-01T21:52:36.753Z,7.20
2019-04-01T21:55:08.329Z,6.87
2019-04-01T21:57:37.170Z,6.83
2019-04-01T22:00:14.754Z,7.20
2019-04-01T22:02:44.070Z,7.57
2019-04-01T22:05:13.412Z,6.97
2019-04-01T22:07:42.151Z,6.93
2019-04-01T22:10:11.761Z,7.43
2019-04-01T22:12:40.502Z,7.50
2019-04-01T22:15:09.341Z,8.00
2019-04-01T22:17:38.183Z,6.47
2019-04-01T22:20:07.868Z,7.37
2019-04-01T22:22:37.530Z,7.17
2019-04-01T22:25:06.783Z,7.13
2019-04-01T22:27:35.580Z,7.20
2019-04-01T22:30:09.067Z,7.50
2019-04-01T22:32:37.795Z,7.00
2019-04-01T22:35:08.514Z,7.63
2019-04-01T22:37:37.971Z,8.00
2019-04-01T22:40:07.831Z,7.43
2019-04-01T22:42:36.507Z,7.33
2019-04-01T22:45:07.975Z,7.40
2019-04-01T22:47:36.815Z,7.47
2019-04-01T22:50:06.958Z,7.60
2019-04-01T22:52:35.890Z,8.00
2019-04-01T22:55:06.188Z,7.50
2019-04-01T22:57:35.029Z,7.37
2019-04-01T23:00:04.597Z,7.03
2019-04-01T23:02:33.268Z,8.67
2019-04-01T23:05:01.967Z,8.00
2019-04-01T23:07:30.665Z,7.53
2019-04-01T23:09:59.337Z,7.37
2019-04-01T23:12:27.994Z,8.50
2019-04-01T23:14:56.680Z,7.53
2019-04-01T23:17:25.374Z,7.67
2019-04-01T23:19:54.126Z,7.10
2019-04-01T23:22:22.802Z,8.20
2019-04-01T23:24:51.516Z,7.20
2019-04-01T23:27:20.150Z,7.50
2019-04-01T23:29:48.815Z,7.13
2019-04-01T23:32:17.499Z,7.53
2019-04-01T23:34:46.252Z,7.50
2019-04-01T23:37:14.926Z,6.97
2019-04-01T23:39:43.581Z,7.67
2019-04-01T23:42:12.238Z,7.17
2019-04-01T23:44:40.918Z,7.60
2019-04-01T23:47:09.591Z,7.43
2019-04-01T23:49:40.255Z,7.67
2019-04-01T23:52:08.675Z,7.67
2019-04-01T23:54:37.335Z,8.23
2019-04-01T23:57:06.024Z,8.00
2019-04-01T23:59:34.715Z,7.00
